Time;durP1;ratioP1;P1;durP2;ratioP2;P2;SDS_P1;SDS_P2;PMS_P1;PMS_P2;Temp;Humidity;BMP_temperature;BMP_pressure;BME280_temperature;BME280_humidity;BME280_pressure;Samples;Min_cycle;Max_cycle;Signal;HPM_P1;HPM_P2
2022/08/16 00:01:17;;;;;;;8.60;4.90;;;19.80;97.30;;;;;;5047592;28;20422;-85
2022/08/16 00:03:44;;;;;;;5.23;2.83;;;19.80;97.30;;;;;;5013299;28;20463;-85
2022/08/16 00:06:09;;;;;;;5.83;3.30;;;19.80;97.30;;;;;;5016291;28;20498;-85
2022/08/16 00:08:36;;;;;;;5.20;2.70;;;19.70;97.30;;;;;;5032694;28;20522;-84
2022/08/16 00:11:02;;;;;;;4.47;2.97;;;19.70;97.30;;;;;;5051494;28;20279;-85
2022/08/16 00:13:28;;;;;;;5.33;2.83;;;19.70;97.30;;;;;;5043349;28;20951;-87
2022/08/16 00:15:54;;;;;;;4.07;2.40;;;19.60;97.30;;;;;;5035513;28;20473;-86
2022/08/16 00:18:20;;;;;;;4.00;3.10;;;19.60;97.30;;;;;;5032567;28;20510;-85
2022/08/16 00:20:47;;;;;;;2.60;2.43;;;19.60;97.30;;;;;;5032621;28;20191;-85
2022/08/16 00:23:13;;;;;;;4.00;2.80;;;19.50;97.30;;;;;;5049513;28;20454;-85
2022/08/16 00:25:38;;;;;;;6.43;3.03;;;19.50;97.30;;;;;;5028202;28;20436;-85
2022/08/16 00:28:07;;;;;;;9.57;5.07;;;19.50;97.30;;;;;;5038062;28;20426;-84
2022/08/16 00:30:33;;;;;;;4.07;3.03;;;19.50;97.30;;;;;;5048317;28;20212;-85
2022/08/16 00:32:59;;;;;;;3.27;3.10;;;19.50;97.30;;;;;;5028943;28;20424;-85
2022/08/16 00:35:28;;;;;;;6.23;4.90;;;19.40;97.30;;;;;;5048730;28;20552;-85
2022/08/16 00:37:57;;;;;;;2.90;2.40;;;19.40;97.30;;;;;;5041841;28;20427;-84
2022/08/16 00:40:36;;;;;;;4.83;2.87;;;19.40;97.30;;;;;;5048941;28;20843;-85
2022/08/16 00:43:15;;;;;;;4.30;2.63;;;19.40;97.30;;;;;;5048637;28;20470;-85
2022/08/16 00:46:09;;;;;;;5.13;3.97;;;19.40;97.30;;;;;;5037221;28;20649;-85
2022/08/16 00:48:35;;;;;;;9.20;4.53;;;19.40;97.30;;;;;;5028842;28;20998;-85
2022/08/16 00:51:01;;;;;;;6.73;2.80;;;19.30;97.30;;;;;;5025848;28;20423;-85
2022/08/16 00:53:27;;;;;;;7.83;3.47;;;19.30;97.30;;;;;;5044611;28;20230;-85
2022/08/16 00:55:57;;;;;;;6.03;3.77;;;19.30;97.30;;;;;;5047582;28;20494;-85
2022/08/16 00:58:27;;;;;;;6.43;2.30;;;19.30;97.30;;;;;;5093955;22;20457;-81
2022/08/16 01:00:54;;;;;;;8.47;5.33;;;19.30;97.30;;;;;;5087608;28;20492;-80
2022/08/16 01:03:22;;;;;;;4.63;2.70;;;19.20;97.30;;;;;;5084024;28;20412;-81
2022/08/16 01:05:48;;;;;;;4.50;3.00;;;19.20;97.30;;;;;;5079961;28;20412;-80
2022/08/16 01:08:17;;;;;;;6.90;3.80;;;19.20;97.30;;;;;;5083964;28;20427;-80
2022/08/16 01:10:43;;;;;;;4.80;2.13;;;19.20;97.30;;;;;;5082567;28;20430;-80
2022/08/16 01:13:13;;;;;;;4.10;3.60;;;19.20;97.30;;;;;;5079063;28;20416;-81
2022/08/16 01:15:44;;;;;;;4.80;2.83;;;19.10;97.30;;;;;;5097069;28;20193;-81
2022/08/16 01:18:13;;;;;;;4.33;2.33;;;19.10;97.30;;;;;;5089470;28;20431;-81
2022/08/16 01:20:46;;;;;;;4.73;3.03;;;19.10;97.30;;;;;;5078971;28;21011;-81
2022/08/16 01:23:20;;;;;;;9.47;2.70;;;19.10;97.30;;;;;;5089587;28;20407;-81
2022/08/16 01:25:51;;;;;;;4.90;4.10;;;19.10;97.30;;;;;;5079528;28;20416;-81
2022/08/16 01:28:19;;;;;;;2.80;2.60;;;19.10;97.30;;;;;;5078355;28;20423;-81
2022/08/16 01:30:54;;;;;;;5.17;3.47;;;19.10;97.30;;;;;;5078362;28;20435;-81
2022/08/16 01:33:20;;;;;;;3.20;2.00;;;19.00;97.30;;;;;;5084934;28;20481;-80
2022/08/16 01:36:00;;;;;;;5.90;3.53;;;19.00;97.30;;;;;;5077940;28;20542;-81
2022/08/16 01:38:36;;;;;;;3.87;3.37;;;19.00;97.30;;;;;;5089868;28;20216;-81
2022/08/16 01:41:11;;;;;;;7.60;4.17;;;19.00;97.30;;;;;;5088818;28;20426;-81
2022/08/16 01:43:40;;;;;;;3.70;1.93;;;19.00;97.30;;;;;;5090543;28;20422;-81
2022/08/16 01:46:17;;;;;;;6.57;3.30;;;18.90;97.30;;;;;;5078953;28;20417;-82
2022/08/16 01:48:43;;;;;;;3.27;3.10;;;18.90;97.30;;;;;;5070020;28;20453;-81
2022/08/16 01:51:10;;;;;;;4.33;2.13;;;18.90;97.30;;;;;;5081872;28;20428;-81
2022/08/16 01:53:36;;;;;;;12.80;4.23;;;18.80;97.30;;;;;;5082518;28;20865;-81
2022/08/16 01:56:02;;;;;;;3.90;1.87;;;18.80;97.30;;;;;;5079884;28;20945;-81
2022/08/16 01:58:28;;;;;;;5.83;3.93;;;18.80;97.30;;;;;;5076012;28;20456;-82
2022/08/16 02:00:53;;;;;;;3.00;2.13;;;18.80;97.30;;;;;;5082276;28;20424;-81
2022/08/16 02:03:19;;;;;;;6.10;2.37;;;18.80;97.30;;;;;;5081392;28;20179;-81
2022/08/16 02:05:45;;;;;;;5.43;2.10;;;18.80;97.30;;;;;;5081133;28;20193;-81
2022/08/16 02:08:10;;;;;;;6.70;3.90;;;18.80;97.30;;;;;;5081157;28;20218;-81
2022/08/16 02:10:37;;;;;;;7.87;3.60;;;18.80;97.30;;;;;;5099877;28;20213;-81
2022/08/16 02:13:05;;;;;;;7.23;2.50;;;18.80;97.30;;;;;;5080868;28;20186;-81
2022/08/16 02:15:33;;;;;;;5.30;4.27;;;18.80;97.30;;;;;;5081030;28;20468;-81
2022/08/16 02:18:00;;;;;;;4.80;3.03;;;18.80;97.30;;;;;;5080768;28;20422;-82
2022/08/16 02:20:28;;;;;;;3.40;2.67;;;18.80;97.30;;;;;;5092767;28;20446;-83
2022/08/16 02:22:59;;;;;;;6.90;4.77;;;18.70;97.30;;;;;;5091331;28;20427;-83
2022/08/16 02:25:26;;;;;;;6.50;4.23;;;18.70;97.30;;;;;;5091856;28;20416;-82
2022/08/16 02:27:53;;;;;;;6.00;3.13;;;18.70;97.30;;;;;;5092689;28;21092;-83
2022/08/16 02:30:23;;;;;;;4.37;2.67;;;18.70;97.30;;;;;;5090737;28;20956;-83
2022/08/16 02:32:48;;;;;;;5.13;3.63;;;18.70;97.30;;;;;;5080290;28;20450;-82
2022/08/16 02:35:14;;;;;;;6.80;2.60;;;18.60;97.30;;;;;;5078620;28;20917;-83
2022/08/16 02:37:40;;;;;;;5.17;3.97;;;18.60;97.30;;;;;;5069581;28;20178;-83
2022/08/16 02:40:07;;;;;;;5.10;4.10;;;18.60;97.30;;;;;;5073394;28;20205;-81
2022/08/16 02:42:33;;;;;;;4.73;3.43;;;18.60;97.30;;;;;;5079824;28;20429;-82
2022/08/16 02:44:58;;;;;;;5.33;3.23;;;18.60;97.30;;;;;;5097982;28;20431;-82
2022/08/16 02:47:24;;;;;;;4.50;2.43;;;18.60;97.30;;;;;;5087011;28;20200;-82
2022/08/16 02:49:50;;;;;;;4.57;2.90;;;18.60;97.30;;;;;;5077195;28;20238;-82
2022/08/16 02:52:16;;;;;;;6.70;2.83;;;18.50;97.30;;;;;;5097471;28;20192;-82
2022/08/16 02:54:41;;;;;;;4.70;4.03;;;18.50;97.30;;;;;;5092255;28;20425;-82
2022/08/16 02:57:07;;;;;;;6.10;3.27;;;18.40;97.30;;;;;;5080410;28;20600;-83
2022/08/16 02:59:33;;;;;;;3.43;2.97;;;18.40;97.30;;;;;;5089001;28;20230;-83
2022/08/16 03:01:58;;;;;;;9.97;7.37;;;18.40;97.30;;;;;;5086290;28;20175;-83
2022/08/16 03:04:24;;;;;;;4.57;3.17;;;18.40;97.30;;;;;;5078442;28;20186;-84
2022/08/16 03:06:51;;;;;;;3.70;3.50;;;18.40;97.30;;;;;;5083060;28;20187;-83
2022/08/16 03:09:17;;;;;;;6.17;3.00;;;18.50;97.30;;;;;;5078636;28;20436;-83
2022/08/16 03:11:43;;;;;;;7.40;3.20;;;18.50;97.30;;;;;;5078086;28;20436;-83
2022/08/16 03:14:10;;;;;;;10.10;4.90;;;18.50;97.30;;;;;;5084386;28;20419;-84
2022/08/16 03:16:35;;;;;;;4.17;3.13;;;18.50;97.30;;;;;;5097349;28;20483;-84
2022/08/16 03:19:01;;;;;;;7.23;3.83;;;18.50;97.30;;;;;;5078433;28;20487;-82
2022/08/16 03:21:27;;;;;;;1.57;1.57;;;18.50;97.30;;;;;;5078373;28;20253;-83
2022/08/16 03:23:53;;;;;;;4.57;3.60;;;18.50;97.30;;;;;;5078216;28;20188;-83
2022/08/16 03:26:19;;;;;;;2.37;2.00;;;18.50;97.30;;;;;;5078266;28;20507;-83
2022/08/16 03:28:45;;;;;;;4.87;3.83;;;18.50;97.30;;;;;;5077078;28;20452;-84
2022/08/16 03:31:11;;;;;;;5.37;2.63;;;18.40;97.30;;;;;;5084447;28;20428;-84
2022/08/16 03:33:36;;;;;;;4.53;2.57;;;18.40;97.30;;;;;;5078186;28;20209;-83
2022/08/16 03:36:03;;;;;;;3.97;3.30;;;18.40;97.30;;;;;;5110547;28;20228;-81
2022/08/16 03:38:30;;;;;;;3.77;2.70;;;18.40;97.30;;;;;;5081770;28;20250;-81
2022/08/16 03:40:57;;;;;;;5.00;3.33;;;18.30;97.30;;;;;;5084659;28;20415;-82
2022/08/16 03:43:23;;;;;;;5.43;3.50;;;18.30;97.30;;;;;;5078213;28;20420;-82
2022/08/16 03:45:51;;;;;;;3.53;2.67;;;18.30;97.30;;;;;;5077191;28;20447;-82
2022/08/16 03:48:16;;;;;;;4.90;3.00;;;18.30;97.30;;;;;;5065141;28;20421;-82
2022/08/16 03:50:42;;;;;;;5.10;3.33;;;18.30;97.30;;;;;;5097993;28;20456;-83
2022/08/16 03:53:08;;;;;;;5.10;2.53;;;18.30;97.30;;;;;;5101757;28;20182;-82
2022/08/16 03:55:33;;;;;;;3.97;2.73;;;18.20;97.30;;;;;;5078009;28;20207;-82
2022/08/16 03:57:59;;;;;;;5.50;3.47;;;18.20;97.30;;;;;;5091611;28;20204;-82
2022/08/16 04:00:27;;;;;;;3.70;3.20;;;18.10;97.30;;;;;;5076773;28;20243;-82
2022/08/16 04:02:55;;;;;;;2.50;2.23;;;18.10;97.30;;;;;;5096001;28;20623;-82
2022/08/16 04:05:21;;;;;;;5.10;2.43;;;18.10;97.30;;;;;;5077985;28;20421;-88
2022/08/16 04:07:47;;;;;;;6.80;3.30;;;18.10;97.30;;;;;;5080801;28;20426;-87
2022/08/16 04:10:13;;;;;;;3.13;2.27;;;18.10;97.30;;;;;;5070376;28;20214;-87
2022/08/16 04:12:40;;;;;;;9.30;5.90;;;18.10;97.30;;;;;;5076817;28;20179;-88
2022/08/16 04:15:12;;;;;;;5.37;2.70;;;18.10;97.30;;;;;;5071678;28;20471;-87
2022/08/16 04:17:38;;;;;;;7.40;6.23;;;18.10;97.30;;;;;;5071982;28;20812;-84
2022/08/16 04:20:08;;;;;;;4.73;2.60;;;18.10;97.30;;;;;;5076024;28;20444;-84
2022/08/16 04:22:35;;;;;;;4.53;3.17;;;18.10;97.30;;;;;;5076366;28;20212;-84
2022/08/16 04:25:01;;;;;;;3.50;2.67;;;18.20;97.30;;;;;;5077052;28;20425;-84
2022/08/16 04:27:27;;;;;;;8.53;4.03;;;18.20;97.30;;;;;;5078461;28;20412;-84
2022/08/16 04:29:52;;;;;;;5.07;4.47;;;18.20;97.30;;;;;;5076572;28;20570;-84
2022/08/16 04:32:18;;;;;;;4.20;2.97;;;18.10;97.30;;;;;;5078834;28;20235;-85
2022/08/16 04:34:44;;;;;;;3.73;3.10;;;18.20;97.30;;;;;;5076829;28;20527;-84
2022/08/16 04:37:09;;;;;;;6.17;3.40;;;18.20;97.30;;;;;;5081440;28;20206;-84
2022/08/16 04:39:36;;;;;;;3.20;2.40;;;18.20;97.30;;;;;;5082939;28;20208;-84
2022/08/16 04:42:02;;;;;;;3.90;3.07;;;18.20;97.30;;;;;;5075053;28;20170;-84
2022/08/16 04:44:28;;;;;;;6.53;3.40;;;18.30;97.30;;;;;;5075607;28;20416;-84
2022/08/16 04:46:54;;;;;;;3.13;1.80;;;18.30;97.30;;;;;;5090238;28;20435;-86
2022/08/16 04:49:21;;;;;;;5.20;2.60;;;18.30;97.30;;;;;;5076762;28;20226;-85
2022/08/16 04:51:47;;;;;;;3.27;3.03;;;18.20;97.30;;;;;;5076969;28;20432;-84
2022/08/16 04:54:13;;;;;;;7.23;3.30;;;18.20;97.30;;;;;;5076274;28;20420;-84
2022/08/16 04:56:39;;;;;;;5.00;4.10;;;18.20;97.30;;;;;;5081817;28;20459;-85
2022/08/16 04:59:07;;;;;;;4.10;2.60;;;18.20;97.30;;;;;;5076178;28;20230;-85
2022/08/16 05:01:33;;;;;;;4.10;2.73;;;18.20;97.30;;;;;;5087186;28;20417;-85
2022/08/16 05:03:59;;;;;;;5.17;3.23;;;18.20;97.30;;;;;;5081811;28;20416;-85
2022/08/16 05:06:24;;;;;;;6.73;4.00;;;18.20;97.30;;;;;;5088063;28;20778;-85
2022/08/16 05:08:50;;;;;;;3.87;2.63;;;18.20;97.30;;;;;;5075297;28;20202;-85
2022/08/16 05:11:16;;;;;;;6.60;2.33;;;18.30;97.30;;;;;;5088510;28;20190;-85
2022/08/16 05:13:45;;;;;;;4.67;2.70;;;18.30;97.30;;;;;;5081987;28;20197;-84
2022/08/16 05:16:26;;;;;;;7.00;4.50;;;18.40;97.30;;;;;;5083068;28;20456;-84
2022/08/16 05:18:54;;;;;;;4.93;3.47;;;18.40;97.30;;;;;;5099810;28;20440;-85
2022/08/16 05:21:20;;;;;;;3.63;2.40;;;18.40;97.30;;;;;;5082932;28;20556;-84
2022/08/16 05:23:46;;;;;;;4.73;2.57;;;18.40;97.30;;;;;;5088876;28;20458;-84
2022/08/16 05:26:12;;;;;;;9.20;4.33;;;18.50;97.30;;;;;;5095931;28;20423;-85
2022/08/16 05:28:37;;;;;;;5.07;2.20;;;18.50;97.30;;;;;;5088938;28;20995;-84
2022/08/16 05:31:03;;;;;;;3.40;2.77;;;18.50;97.30;;;;;;5097376;28;20449;-85
2022/08/16 05:33:29;;;;;;;4.43;3.83;;;18.50;97.30;;;;;;5089587;28;20189;-85
2022/08/16 05:35:54;;;;;;;6.40;2.67;;;18.60;97.30;;;;;;5081679;28;20224;-85
2022/08/16 05:38:26;;;;;;;5.80;3.30;;;18.60;97.30;;;;;;5081978;28;20200;-84
2022/08/16 05:40:53;;;;;;;5.70;4.03;;;18.70;97.30;;;;;;5083883;28;20177;-84
2022/08/16 05:43:19;;;;;;;5.40;3.30;;;18.70;97.30;;;;;;5088056;28;20420;-84
2022/08/16 05:45:45;;;;;;;6.30;2.80;;;18.70;97.30;;;;;;5096843;28;20485;-84
2022/08/16 05:48:11;;;;;;;7.97;5.10;;;18.70;97.30;;;;;;5097833;28;20182;-84
2022/08/16 05:50:36;;;;;;;6.83;3.27;;;18.80;97.30;;;;;;5083694;28;20435;-84
2022/08/16 05:53:02;;;;;;;4.93;4.20;;;18.80;97.30;;;;;;5088848;28;20175;-84
2022/08/16 05:55:28;;;;;;;6.30;4.07;;;18.80;97.30;;;;;;5094112;28;20174;-84
2022/08/16 05:57:53;;;;;;;3.67;3.07;;;18.90;97.30;;;;;;5098624;28;20185;-84
2022/08/16 06:00:19;;;;;;;6.60;3.40;;;18.90;97.30;;;;;;5096691;28;20221;-84
2022/08/16 06:02:44;;;;;;;4.97;4.37;;;18.90;97.30;;;;;;5089406;28;20193;-84
2022/08/16 06:05:10;;;;;;;6.10;4.77;;;18.90;97.30;;;;;;5099026;28;20174;-84
2022/08/16 06:07:36;;;;;;;4.73;3.20;;;18.90;97.30;;;;;;5092021;28;20540;-84
2022/08/16 06:10:03;;;;;;;5.57;4.07;;;18.90;97.30;;;;;;5093846;28;20251;-83
2022/08/16 06:12:29;;;;;;;5.90;4.77;;;19.00;97.30;;;;;;5080375;28;20208;-84
2022/08/16 06:14:57;;;;;;;2.13;2.03;;;19.00;97.30;;;;;;5094415;28;20453;-83
2022/08/16 06:17:23;;;;;;;5.27;3.60;;;19.10;97.30;;;;;;5090478;28;20456;-84
2022/08/16 06:19:49;;;;;;;3.80;2.90;;;19.10;97.30;;;;;;5092795;28;20431;-84
2022/08/16 06:22:15;;;;;;;8.77;3.27;;;19.20;97.30;;;;;;5080991;28;20424;-83
2022/08/16 06:24:40;;;;;;;3.70;3.00;;;19.20;97.30;;;;;;5076639;28;20503;-83
2022/08/16 06:27:06;;;;;;;10.10;6.30;;;19.20;97.30;;;;;;5095822;28;20198;-84
2022/08/16 06:29:32;;;;;;;4.17;2.87;;;19.30;97.30;;;;;;5081035;28;20209;-84
2022/08/16 06:31:57;;;;;;;2.93;2.73;;;19.40;97.30;;;;;;5093897;28;20178;-84
2022/08/16 06:34:23;;;;;;;4.00;3.43;;;19.40;97.30;;;;;;5080767;28;20244;-84
2022/08/16 06:36:50;;;;;;;4.60;3.30;;;19.50;97.30;;;;;;5094185;28;20198;-84
2022/08/16 06:39:16;;;;;;;6.10;3.67;;;19.50;97.30;;;;;;5064122;28;20208;-84
2022/08/16 06:41:42;;;;;;;5.87;3.53;;;19.60;97.30;;;;;;5087796;28;20447;-84
2022/08/16 06:44:07;;;;;;;9.27;3.63;;;19.70;97.30;;;;;;5077744;28;20795;-84
2022/08/16 06:46:36;;;;;;;3.47;2.87;;;19.70;97.30;;;;;;5076613;28;20601;-84
2022/08/16 06:49:06;;;;;;;2.50;1.63;;;19.80;97.30;;;;;;5064656;28;20195;-84
2022/08/16 06:51:33;;;;;;;4.10;3.87;;;19.80;97.30;;;;;;5076502;28;20535;-84
2022/08/16 06:54:00;;;;;;;2.77;2.20;;;19.90;97.30;;;;;;5088441;28;20448;-84
2022/08/16 06:56:26;;;;;;;5.20;2.53;;;19.90;97.30;;;;;;5077340;28;20453;-83
2022/08/16 07:01:31;;;;;;;3.47;3.07;;;20.10;97.30;;;;;;5083921;28;20214;-85
2022/08/16 07:03:56;;;;;;;4.20;2.40;;;20.20;97.30;;;;;;5054754;28;20413;-85
2022/08/16 07:06:22;;;;;;;2.60;2.27;;;20.20;97.30;;;;;;5066185;28;20205;-86
2022/08/16 07:08:48;;;;;;;3.10;2.20;;;20.30;97.30;;;;;;5057634;28;20195;-86
2022/08/16 07:11:16;;;;;;;3.53;2.43;;;20.40;97.30;;;;;;5047337;28;20460;-86
2022/08/16 07:13:41;;;;;;;3.20;2.53;;;20.50;97.30;;;;;;5061139;28;20174;-87
2022/08/16 07:16:13;;;;;;;2.43;2.27;;;20.50;97.30;;;;;;5053578;28;20826;-87
2022/08/16 07:18:45;;;;;;;2.50;2.07;;;20.60;97.30;;;;;;5052412;28;20206;-86
2022/08/16 07:21:12;;;;;;;3.33;2.57;;;20.60;97.30;;;;;;5053801;28;20441;-87
2022/08/16 07:23:39;;;;;;;1.67;1.50;;;20.70;97.30;;;;;;5053558;28;20402;-86
2022/08/16 07:26:09;;;;;;;6.70;1.77;;;20.80;97.30;;;;;;5053589;28;20528;-86
2022/08/16 07:28:35;;;;;;;4.97;2.40;;;20.90;97.30;;;;;;5053926;28;20531;-87
2022/08/16 07:31:02;;;;;;;4.07;2.47;;;21.00;97.30;;;;;;5053868;28;20528;-86
2022/08/16 07:33:29;;;;;;;4.97;2.40;;;21.00;97.30;;;;;;5053743;28;20183;-87
2022/08/16 07:35:56;;;;;;;3.10;2.27;;;21.10;97.30;;;;;;5066307;28;20453;-87
2022/08/16 07:38:22;;;;;;;2.33;2.20;;;21.20;97.30;;;;;;5053082;28;20410;-86
2022/08/16 07:40:47;;;;;;;3.50;2.43;;;21.30;97.30;;;;;;5039906;28;20436;-87
2022/08/16 07:43:13;;;;;;;3.20;1.90;;;21.40;97.30;;;;;;5053016;28;20217;-87
2022/08/16 07:45:38;;;;;;;3.20;2.13;;;21.40;97.30;;;;;;5052938;28;20172;-87
2022/08/16 07:48:04;;;;;;;1.87;1.67;;;21.50;97.30;;;;;;5053289;28;20183;-86
2022/08/16 07:50:29;;;;;;;6.10;2.97;;;21.60;97.30;;;;;;5052839;28;20244;-85
2022/08/16 07:52:55;;;;;;;2.00;1.77;;;21.70;97.30;;;;;;5054015;28;20171;-87
2022/08/16 07:55:21;;;;;;;3.93;2.20;;;21.80;97.30;;;;;;5053819;28;20644;-86
2022/08/16 07:57:46;;;;;;;2.70;2.50;;;21.90;97.30;;;;;;5052843;28;20577;-87
2022/08/16 08:00:13;;;;;;;2.00;1.70;;;22.00;97.30;;;;;;5034279;28;1057628;-87
2022/08/16 08:02:38;;;;;;;4.10;2.00;;;22.10;97.30;;;;;;5053936;28;20190;-84
2022/08/16 08:05:05;;;;;;;2.60;2.13;;;22.20;97.30;;;;;;5048867;28;20717;-85
2022/08/16 08:07:30;;;;;;;2.00;1.87;;;22.30;97.30;;;;;;5050472;28;20186;-84
2022/08/16 08:09:57;;;;;;;5.07;2.43;;;22.30;97.30;;;;;;5053282;28;20448;-86
2022/08/16 08:12:23;;;;;;;2.90;2.70;;;22.40;97.30;;;;;;5053320;28;20694;-85
2022/08/16 08:14:48;;;;;;;3.33;2.53;;;22.50;97.30;;;;;;5053533;28;20425;-84
2022/08/16 08:17:15;;;;;;;3.23;2.70;;;22.60;97.30;;;;;;5071402;28;20206;-83
2022/08/16 08:19:40;;;;;;;2.20;2.00;;;22.70;97.30;;;;;;5048975;28;20200;-84
2022/08/16 08:22:08;;;;;;;3.83;2.03;;;22.80;97.30;;;;;;5044923;28;20420;-86
2022/08/16 08:24:37;;;;;;;3.43;2.40;;;22.80;97.30;;;;;;5040501;28;20175;-84
2022/08/16 08:27:05;;;;;;;4.07;2.43;;;22.90;97.30;;;;;;5053327;28;20436;-84
2022/08/16 08:29:31;;;;;;;3.37;2.00;;;23.00;97.30;;;;;;5052967;28;20837;-84
2022/08/16 08:31:57;;;;;;;2.20;2.00;;;23.10;97.30;;;;;;5041270;28;20520;-84
2022/08/16 08:34:23;;;;;;;2.80;1.97;;;23.20;97.30;;;;;;5051916;28;20440;-86
2022/08/16 08:36:49;;;;;;;3.00;2.30;;;23.30;97.30;;;;;;5053122;28;20469;-86
2022/08/16 08:39:15;;;;;;;2.20;2.00;;;23.40;97.30;;;;;;5069971;28;20433;-84
2022/08/16 08:41:42;;;;;;;3.77;2.33;;;23.50;97.30;;;;;;5069032;28;20179;-86
2022/08/16 08:44:07;;;;;;;2.07;1.73;;;23.60;97.30;;;;;;5046696;28;20230;-86
2022/08/16 08:46:33;;;;;;;4.23;2.57;;;23.70;97.30;;;;;;5063439;28;20930;-84
2022/08/16 08:48:58;;;;;;;3.40;2.07;;;23.80;97.30;;;;;;5049710;28;20202;-84
2022/08/16 08:51:24;;;;;;;2.83;2.10;;;23.90;97.30;;;;;;5047539;28;20537;-84
2022/08/16 08:53:50;;;;;;;2.03;1.80;;;24.00;97.30;;;;;;5045118;28;20229;-83
2022/08/16 08:56:16;;;;;;;3.03;2.47;;;24.10;97.30;;;;;;5070688;28;20461;-84
2022/08/16 08:58:42;;;;;;;3.40;2.00;;;24.20;97.30;;;;;;5052923;28;20444;-84
2022/08/16 09:01:08;;;;;;;2.80;2.03;;;24.30;97.00;;;;;;5052739;28;20219;-84
2022/08/16 09:03:35;;;;;;;4.00;2.40;;;24.40;97.30;;;;;;5053011;28;20706;-84
2022/08/16 09:06:01;;;;;;;3.53;2.67;;;24.50;96.30;;;;;;5052199;28;20444;-84
2022/08/16 09:08:27;;;;;;;1.77;1.67;;;24.60;96.10;;;;;;5053075;28;20422;-84
2022/08/16 09:10:56;;;;;;;3.73;2.93;;;24.70;96.40;;;;;;5052851;28;20414;-84
2022/08/16 09:13:23;;;;;;;5.13;2.50;;;24.70;95.80;;;;;;5052796;28;20186;-86
2022/08/16 09:15:49;;;;;;;4.40;2.43;;;24.80;96.40;;;;;;5053081;28;20826;-84
2022/08/16 09:18:16;;;;;;;3.17;1.87;;;24.90;95.70;;;;;;5055223;28;20418;-85
2022/08/16 09:20:43;;;;;;;6.53;3.20;;;24.90;95.20;;;;;;5060770;28;20428;-84
2022/08/16 09:23:09;;;;;;;3.63;2.50;;;25.00;94.60;;;;;;5040112;28;20409;-85
2022/08/16 09:25:34;;;;;;;3.30;2.63;;;25.00;93.50;;;;;;5053115;28;20453;-84
2022/08/16 09:28:01;;;;;;;2.70;2.03;;;25.00;93.50;;;;;;5070359;28;20450;-84
2022/08/16 09:30:26;;;;;;;4.80;2.80;;;25.10;93.90;;;;;;5052996;28;20245;-84
2022/08/16 09:32:53;;;;;;;2.73;2.53;;;25.20;94.00;;;;;;5053267;28;20581;-84
2022/08/16 09:35:23;;;;;;;3.43;2.30;;;25.30;93.20;;;;;;5052997;28;20172;-84
2022/08/16 09:37:48;;;;;;;5.63;2.87;;;25.40;93.20;;;;;;5053019;28;20481;-86
2022/08/16 09:40:14;;;;;;;3.07;2.20;;;25.50;93.10;;;;;;5052428;28;20849;-84
2022/08/16 09:42:39;;;;;;;3.00;2.20;;;25.60;92.10;;;;;;5053787;28;20175;-86
2022/08/16 09:45:07;;;;;;;3.57;1.90;;;25.70;91.90;;;;;;5069974;28;20210;-85
2022/08/16 09:47:38;;;;;;;1.53;1.40;;;25.80;91.50;;;;;;5052536;28;20207;-84
2022/08/16 09:50:05;;;;;;;1.40;1.27;;;25.90;92.20;;;;;;5042938;28;20526;-85
2022/08/16 09:52:31;;;;;;;1.57;1.50;;;26.00;90.70;;;;;;5049131;28;20428;-84
2022/08/16 09:54:56;;;;;;;1.93;1.27;;;26.10;90.00;;;;;;5034808;28;20430;-84
2022/08/16 09:57:22;;;;;;;2.80;2.27;;;26.10;90.00;;;;;;5034415;28;20589;-84
2022/08/16 09:59:48;;;;;;;2.67;2.30;;;26.20;89.40;;;;;;5035801;28;20302;-85
2022/08/16 10:02:13;;;;;;;1.93;1.83;;;26.30;90.80;;;;;;5036695;28;20168;-84
2022/08/16 10:04:39;;;;;;;2.63;2.43;;;26.30;88.30;;;;;;5054894;28;20175;-84
2022/08/16 10:07:04;;;;;;;2.43;2.03;;;26.40;87.60;;;;;;5056694;28;20179;-84
2022/08/16 10:09:30;;;;;;;2.30;1.90;;;26.50;87.80;;;;;;5056185;28;20249;-85
2022/08/16 10:14:41;;;;;;;3.30;2.50;;;26.60;87.50;;;;;;5074413;28;20178;-85
2022/08/16 10:17:06;;;;;;;2.37;1.50;;;26.70;87.70;;;;;;5044399;28;20839;-85
2022/08/16 10:19:32;;;;;;;1.40;1.20;;;26.80;87.20;;;;;;5041225;28;20441;-85
2022/08/16 10:21:58;;;;;;;2.00;1.67;;;26.90;86.90;;;;;;5074085;28;20668;-84
2022/08/16 10:24:24;;;;;;;2.77;2.57;;;27.00;84.80;;;;;;5056028;28;20861;-85
2022/08/16 10:26:51;;;;;;;2.13;1.53;;;27.10;85.90;;;;;;5056249;28;20759;-84
2022/08/16 10:29:18;;;;;;;1.50;1.47;;;27.30;84.30;;;;;;5055727;28;20213;-84
2022/08/16 10:31:43;;;;;;;1.63;1.53;;;27.30;84.40;;;;;;5055792;28;20417;-83
2022/08/16 10:34:09;;;;;;;1.73;1.60;;;27.30;84.10;;;;;;5055996;28;20480;-84
2022/08/16 10:36:35;;;;;;;1.67;1.60;;;27.30;83.10;;;;;;5055591;28;20222;-85
2022/08/16 10:39:01;;;;;;;2.57;2.37;;;27.40;84.10;;;;;;5057885;28;20202;-84
2022/08/16 10:41:26;;;;;;;2.50;1.97;;;27.50;84.80;;;;;;5047337;28;20184;-86
2022/08/16 10:43:52;;;;;;;2.30;1.93;;;27.60;83.60;;;;;;5057849;28;20425;-85
2022/08/16 10:46:18;;;;;;;1.63;1.10;;;27.70;81.50;;;;;;5057765;28;20175;-85
2022/08/16 10:48:45;;;;;;;1.90;1.23;;;27.70;81.20;;;;;;5057446;28;20203;-86
2022/08/16 10:51:11;;;;;;;1.57;1.23;;;27.80;82.70;;;;;;5062452;28;20596;-86
2022/08/16 10:53:38;;;;;;;1.83;1.43;;;27.90;82.40;;;;;;5053540;28;20417;-86
2022/08/16 10:56:06;;;;;;;1.70;1.67;;;28.00;82.30;;;;;;5048900;28;20454;-86
2022/08/16 10:58:32;;;;;;;1.53;1.27;;;28.00;82.80;;;;;;5049308;28;20789;-85
2022/08/16 11:00:58;;;;;;;2.53;1.40;;;28.00;81.70;;;;;;5057203;28;20460;-85
2022/08/16 11:03:27;;;;;;;1.20;1.10;;;28.00;82.20;;;;;;5037989;28;20908;-86
2022/08/16 11:05:53;;;;;;;1.43;1.33;;;28.10;80.80;;;;;;5054813;28;20504;-85
2022/08/16 11:08:19;;;;;;;2.80;2.53;;;28.20;81.50;;;;;;5043176;28;20446;-86
2022/08/16 11:10:46;;;;;;;1.13;1.07;;;28.30;80.40;;;;;;5036092;28;20176;-85
2022/08/16 11:13:20;;;;;;;1.30;1.20;;;28.40;82.00;;;;;;5037174;28;20262;-86
2022/08/16 11:15:46;;;;;;;1.40;1.30;;;28.50;79.70;;;;;;5037560;28;20496;-86
2022/08/16 11:18:12;;;;;;;1.33;1.30;;;28.60;79.50;;;;;;5056602;28;20995;-85
2022/08/16 11:20:41;;;;;;;1.20;1.10;;;28.70;80.00;;;;;;5056948;28;20199;-85
2022/08/16 11:23:08;;;;;;;2.23;1.67;;;28.80;78.80;;;;;;5056806;28;20414;-84
2022/08/16 11:25:34;;;;;;;2.30;1.30;;;28.90;79.50;;;;;;5056893;28;20446;-86
2022/08/16 11:28:00;;;;;;;1.63;1.10;;;29.00;77.70;;;;;;5055326;28;20436;-85
2022/08/16 11:30:28;;;;;;;1.10;1.00;;;29.10;78.90;;;;;;5054937;28;20249;-84
2022/08/16 11:32:54;;;;;;;1.03;1.00;;;29.10;78.00;;;;;;5056531;28;20438;-86
2022/08/16 11:35:23;;;;;;;1.20;1.20;;;29.20;76.10;;;;;;5056689;28;20922;-85
2022/08/16 11:38:00;;;;;;;1.20;1.10;;;29.20;75.30;;;;;;5050893;28;20498;-85
2022/08/16 11:40:31;;;;;;;1.93;1.27;;;29.30;76.20;;;;;;5035239;28;20495;-85
2022/08/16 11:42:57;;;;;;;1.00;0.90;;;29.30;77.60;;;;;;5035464;28;20919;-85
2022/08/16 11:45:23;;;;;;;1.77;1.73;;;29.50;77.10;;;;;;5035053;28;20402;-85
2022/08/16 11:47:49;;;;;;;1.40;1.10;;;29.50;75.80;;;;;;5047091;28;20779;-85
2022/08/16 11:50:15;;;;;;;1.17;1.07;;;29.30;76.20;;;;;;5056614;28;20454;-85
2022/08/16 11:52:41;;;;;;;2.10;1.63;;;29.30;77.50;;;;;;5056494;28;20476;-86
2022/08/16 11:55:10;;;;;;;1.00;1.00;;;29.40;77.20;;;;;;5055824;28;20425;-85
2022/08/16 11:57:36;;;;;;;2.23;1.60;;;29.50;78.30;;;;;;5055097;28;21092;-86
2022/08/16 12:00:10;;;;;;;2.37;1.03;;;29.50;76.40;;;;;;5055213;28;20504;-86
2022/08/16 12:02:36;;;;;;;1.50;1.30;;;29.40;77.30;;;;;;5072562;28;20413;-86
2022/08/16 12:05:04;;;;;;;1.47;1.33;;;29.40;76.80;;;;;;5056457;28;20915;-86
2022/08/16 12:07:29;;;;;;;1.40;1.30;;;29.50;78.20;;;;;;5055850;28;20472;-85
2022/08/16 12:09:55;;;;;;;1.40;1.30;;;29.60;77.60;;;;;;5055550;28;20441;-86
2022/08/16 12:12:21;;;;;;;2.00;1.70;;;29.60;76.50;;;;;;5055941;28;20258;-86
2022/08/16 12:14:47;;;;;;;1.40;1.23;;;29.50;76.50;;;;;;5055951;28;20210;-86
2022/08/16 12:17:13;;;;;;;1.70;1.33;;;29.40;76.10;;;;;;5054473;28;20290;-86
2022/08/16 12:19:39;;;;;;;1.97;1.50;;;29.20;76.50;;;;;;5070961;28;20190;-86
2022/08/16 12:22:06;;;;;;;1.73;1.63;;;29.00;76.90;;;;;;5043945;28;20327;-86
2022/08/16 12:24:32;;;;;;;1.53;1.33;;;28.90;76.80;;;;;;5047355;28;20179;-86
2022/08/16 12:26:59;;;;;;;1.83;1.37;;;28.90;77.20;;;;;;5033805;28;20760;-85
2022/08/16 12:29:25;;;;;;;2.10;1.90;;;28.80;77.70;;;;;;5049897;28;20452;-86
2022/08/16 12:31:50;;;;;;;1.20;1.10;;;28.70;77.30;;;;;;5053488;28;20421;-86
2022/08/16 12:34:17;;;;;;;1.20;1.10;;;28.70;76.60;;;;;;5053953;28;20768;-86
2022/08/16 12:36:42;;;;;;;1.50;1.20;;;28.60;76.90;;;;;;5052279;28;20198;-86
2022/08/16 12:39:08;;;;;;;1.50;1.40;;;28.60;77.30;;;;;;5069967;28;20426;-86
2022/08/16 12:41:36;;;;;;;1.67;1.57;;;28.70;78.10;;;;;;5042260;28;20566;-86
2022/08/16 12:44:05;;;;;;;1.67;1.47;;;28.70;76.80;;;;;;5033051;28;20172;-86
2022/08/16 12:46:32;;;;;;;1.13;1.10;;;28.70;76.80;;;;;;5034200;28;20418;-86
2022/08/16 12:49:00;;;;;;;2.63;1.47;;;28.60;77.30;;;;;;5051950;28;20433;-85